Estación Meteorológica Peña el Pijo (Robertgarden) [ 12/10/18 12:18:17 CET ]

Fecha Hora Presion(HPa) Temp (°C) Humedad % Rocio (°C) Viento ( m/s) Direccion Lluvia 1Hora(mm) Lluvia 24H(mm) LLuvia Total(mm)
2018-Jun-03 01:01:56 1007.900 8.9 85 6.5       6.73 261.59
2018-Jun-03 02:01:49 1007.800 9.1 86 6.9       6.73 261.59
2018-Jun-03 03:01:44 1007.300 8.0 86 5.8       6.73 261.59
2018-Jun-03 04:01:39 1007.300 7.6 87 5.6       6.73 261.59
2018-Jun-03 05:01:40 1007.200 8.0 88 6.2       6.73 261.59
2018-Jun-03 06:01:41 1006.500 8.4 88 6.5       6.73 261.59
2018-Jun-03 07:01:41 1006.800 8.8 87 6.8       6.73 261.59
2018-Jun-03 08:01:53 1006.700 10.4 89 8.6       6.73 261.59
2018-Jun-03 09:01:45 1006.900 11.4 86 9.1 2.4 NW   6.73 261.59
2018-Jun-03 10:01:52 1007.200 14.9 77 10.9       6.73 261.59
2018-Jun-03 11:01:43 1007.500 16.4 64 9.6       6.73 261.59
2018-Jun-03 12:01:40 1007.700 20.1 55 10.7       6.73 261.59
2018-Jun-03 13:01:46 1008.100 21.3 51 10.8       6.73 261.59
2018-Jun-03 14:01:39 1007.900 20.5 50 9.8       6.73 261.59
2018-Jun-03 15:01:39 1007.600 22.4 47 10.5       6.73 261.59
2018-Jun-03 16:02:02 1007.400 21.5 49 10.3       6.73 261.59
2018-Jun-03 17:01:49 1006.800 26.4 41 12.1       6.73 261.59
2018-Jun-03 18:01:46 1006.900 24.1 40 9.7       6.73 261.59
2018-Jun-03 19:01:47 1006.700 22.5 40 8.2       6.73 261.59
2018-Jun-03 20:02:03 1006.800 20.6 43 7.5       6.21 261.59
2018-Jun-03 21:01:40 1007.200 17.8 51 7.5       4.14 261.59
2018-Jun-03 22:01:41 1007.600 14.9 61 7.4         261.59
2018-Jun-03 23:01:52 1008.200 12.6 69 7.1         261.59

Temperatura Máxima:26°    Temperatura Mínima:
Presión Máxima:1008.200 Hpa    Presión Mínima:1006.500 Hpa


Volver